createdAt,value
2022-10-28T00:01:26.975Z,101554.56
2022-10-28T00:03:58.167Z,101549.25
2022-10-28T00:06:30.146Z,101526.44
2022-10-28T00:08:59.975Z,101541.78
2022-10-28T00:11:30.962Z,101548.28
2022-10-28T00:14:02.705Z,101539.44
2022-10-28T00:16:33.417Z,101542.72
2022-10-28T00:19:02.773Z,101535.69
2022-10-28T00:21:36.620Z,101539.28
2022-10-28T00:24:07.633Z,101508.72
2022-10-28T00:26:37.968Z,101550.00
2022-10-28T00:29:09.283Z,101544.56
2022-10-28T00:31:38.950Z,101534.19
2022-10-28T00:34:12.517Z,101544.19
2022-10-28T00:36:43.037Z,101552.16
2022-10-28T00:39:15.498Z,101533.47
2022-10-28T00:41:46.764Z,101552.31
2022-10-28T00:44:53.308Z,101541.59
2022-10-28T00:47:37.489Z,101538.31
2022-10-28T00:50:33.910Z,101540.94
2022-10-28T00:53:07.903Z,101538.09
2022-10-28T00:55:38.148Z,101535.31
2022-10-28T00:58:09.065Z,101530.84
2022-10-28T01:00:37.518Z,101531.59
2022-10-28T01:03:05.941Z,101507.88
2022-10-28T01:05:38.847Z,101529.03
2022-10-28T01:08:07.778Z,101523.72
2022-10-28T01:11:17.869Z,101519.47
2022-10-28T01:14:13.596Z,101516.81
2022-10-28T01:16:54.619Z,101507.94
2022-10-28T01:20:00.486Z,101516.63
2022-10-28T01:22:35.093Z,101518.44
2022-10-28T01:25:54.206Z,101516.53
2022-10-28T01:29:10.955Z,101516.47
2022-10-28T01:31:45.346Z,101517.47
2022-10-28T01:34:24.678Z,101516.75
2022-10-28T01:37:00.040Z,101508.59
2022-10-28T01:39:37.739Z,101497.53
2022-10-28T01:42:16.447Z,101502.25
2022-10-28T01:44:54.009Z,101508.72
2022-10-28T01:47:27.746Z,101514.03
2022-10-28T01:50:00.941Z,101504.91
2022-10-28T01:52:32.317Z,101501.34
2022-10-28T01:55:07.327Z,101506.63
2022-10-28T01:57:39.009Z,101481.16
2022-10-28T02:00:09.385Z,101486.19
2022-10-28T02:02:42.736Z,101476.31
2022-10-28T02:05:38.004Z,101491.19
2022-10-28T02:08:22.831Z,101499.91
2022-10-28T02:11:06.415Z,101490.88
2022-10-28T02:13:53.024Z,101490.97
2022-10-28T02:16:31.127Z,101470.03
2022-10-28T02:19:10.495Z,101493.69
2022-10-28T02:21:48.979Z,101482.06
2022-10-28T02:24:23.731Z,101484.16
2022-10-28T02:26:58.099Z,101491.19
2022-10-28T02:29:34.429Z,101490.94
2022-10-28T02:32:08.359Z,101480.19
2022-10-28T02:34:43.570Z,101490.75
2022-10-28T02:37:18.531Z,101489.81
2022-10-28T02:39:53.815Z,101480.97
2022-10-28T02:42:26.245Z,101477.53
2022-10-28T02:45:00.689Z,101488.78
2022-10-28T02:47:33.756Z,101487.84
2022-10-28T02:50:09.938Z,101483.28
2022-10-28T02:52:38.815Z,101471.94
2022-10-28T02:55:08.453Z,101466.78
2022-10-28T02:57:41.736Z,101466.25
2022-10-28T03:00:15.328Z,101462.44
2022-10-28T03:02:43.636Z,101434.41
2022-10-28T03:05:14.257Z,101470.63
2022-10-28T03:07:42.513Z,101468.06
2022-10-28T03:10:11.667Z,101458.41
2022-10-28T03:12:40.176Z,101462.59
2022-10-28T03:15:09.820Z,101474.03
2022-10-28T03:17:38.088Z,101469.47
2022-10-28T03:20:07.814Z,101458.75
2022-10-28T03:22:37.461Z,101460.91
2022-10-28T03:25:06.697Z,101463.63
2022-10-28T03:27:34.888Z,101460.94
2022-10-28T03:30:03.245Z,101454.75
2022-10-28T03:32:31.437Z,101440.81
2022-10-28T03:34:59.699Z,101464.56
2022-10-28T03:37:28.041Z,101465.59
2022-10-28T03:39:57.647Z,101465.56
2022-10-28T03:42:25.980Z,101466.59
2022-10-28T03:44:54.315Z,101474.56
2022-10-28T03:47:22.482Z,101453.41
2022-10-28T03:49:50.705Z,101463.78
2022-10-28T03:52:18.987Z,101442.50
2022-10-28T03:54:47.356Z,101444.19
2022-10-28T03:57:16.902Z,101442.59
2022-10-28T03:59:45.143Z,101439.94
2022-10-28T04:02:15.617Z,101440.69
2022-10-28T04:04:43.889Z,101420.34
2022-10-28T04:07:13.248Z,101448.34
2022-10-28T04:09:42.793Z,101446.41
2022-10-28T04:12:12.601Z,101446.56
2022-10-28T04:14:42.214Z,101441.25
2022-10-28T04:17:10.446Z,101407.13
2022-10-28T04:19:38.727Z,101439.66
2022-10-28T04:22:07.994Z,101438.72
2022-10-28T04:24:36.324Z,101430.59
2022-10-28T04:27:04.581Z,101423.91
2022-10-28T04:29:34.325Z,101433.78
2022-10-28T04:32:04.155Z,101431.81
2022-10-28T04:34:32.448Z,101432.03
2022-10-28T04:37:00.673Z,101454.50
2022-10-28T04:39:28.931Z,101456.97
2022-10-28T04:41:57.125Z,101377.97
2022-10-28T04:44:25.426Z,101448.25
2022-10-28T04:46:53.655Z,101445.53
2022-10-28T04:49:23.373Z,101449.09
2022-10-28T04:51:51.646Z,101440.38
2022-10-28T04:54:19.918Z,101441.06
2022-10-28T04:56:48.201Z,101433.13
2022-10-28T04:59:17.363Z,101437.59
2022-10-28T05:01:45.679Z,101430.66
2022-10-28T05:04:14.095Z,101439.56
2022-10-28T05:06:43.766Z,101434.59
2022-10-28T05:09:12.141Z,101432.13
2022-10-28T05:11:40.458Z,101427.47
2022-10-28T05:14:08.795Z,101431.75
2022-10-28T05:16:37.058Z,101440.72
2022-10-28T05:19:05.323Z,101442.44
2022-10-28T05:21:33.475Z,101451.41
2022-10-28T05:24:03.376Z,101451.41
2022-10-28T05:26:31.575Z,101443.72
2022-10-28T05:28:59.790Z,101446.44
2022-10-28T05:31:27.993Z,101436.06
2022-10-28T05:33:56.632Z,101435.84
2022-10-28T05:36:24.830Z,101432.16
2022-10-28T05:38:53.113Z,101427.66
2022-10-28T05:41:23.420Z,101422.25
2022-10-28T05:43:52.921Z,101407.47
2022-10-28T05:46:22.271Z,101426.81
2022-10-28T05:48:50.831Z,101428.78
2022-10-28T05:51:19.022Z,101425.31
2022-10-28T05:53:47.302Z,101415.72
2022-10-28T05:56:15.528Z,101416.34
2022-10-28T05:58:45.230Z,101422.53
2022-10-28T06:01:13.681Z,101413.63
2022-10-28T06:03:41.945Z,101418.28
2022-10-28T06:06:10.251Z,101415.56
2022-10-28T06:08:38.462Z,101413.06
2022-10-28T06:11:05.754Z,101419.31
2022-10-28T06:13:34.074Z,101413.94
2022-10-28T06:16:04.151Z,101414.03
2022-10-28T06:18:32.562Z,101401.00
2022-10-28T06:21:00.783Z,101404.72
2022-10-28T06:23:29.030Z,101396.19
2022-10-28T06:25:58.424Z,101393.84
2022-10-28T06:28:27.198Z,101406.25
2022-10-28T06:31:02.752Z,101406.28
2022-10-28T06:33:31.548Z,101409.19
2022-10-28T06:36:00.306Z,101409.22
2022-10-28T06:38:29.596Z,101388.97
2022-10-28T06:40:58.780Z,101409.88
2022-10-28T06:43:27.223Z,101410.59
2022-10-28T06:45:56.057Z,101407.72
2022-10-28T06:48:27.257Z,101420.16
2022-10-28T06:50:57.659Z,101405.97
2022-10-28T06:53:26.429Z,101422.59
2022-10-28T06:55:55.457Z,101423.53
2022-10-28T06:58:24.367Z,101431.53
2022-10-28T07:00:53.285Z,101424.34
2022-10-28T07:03:21.764Z,101425.03
2022-10-28T07:05:51.891Z,101419.63
2022-10-28T07:08:20.475Z,101449.47
2022-10-28T07:10:56.356Z,101439.63
2022-10-28T07:13:24.967Z,101412.13
2022-10-28T07:15:54.031Z,101433.28
2022-10-28T07:18:23.058Z,101435.03
2022-10-28T07:20:52.672Z,101431.56
2022-10-28T07:23:21.422Z,101435.84
2022-10-28T07:28:28.814Z,101415.69
2022-10-28T07:31:01.666Z,101456.03
2022-10-28T07:33:30.162Z,101465.91
2022-10-28T07:35:59.820Z,101454.16
2022-10-28T07:38:28.198Z,101459.44
2022-10-28T07:40:56.469Z,101478.81
2022-10-28T07:43:24.970Z,101466.28
2022-10-28T07:45:57.695Z,101464.16
2022-10-28T07:48:26.283Z,101466.50
2022-10-28T07:50:54.523Z,101460.94
2022-10-28T07:53:27.721Z,101466.84
2022-10-28T07:55:58.187Z,101467.38
2022-10-28T07:58:26.952Z,101467.03
2022-10-28T08:00:55.475Z,101456.78
2022-10-28T08:03:31.207Z,101465.09
2022-10-28T08:06:10.558Z,101399.03
2022-10-28T08:08:41.206Z,101472.56
2022-10-28T08:11:13.141Z,101460.03
2022-10-28T08:13:41.607Z,101462.13
2022-10-28T08:16:10.710Z,101463.75
2022-10-28T08:18:40.355Z,101478.81
2022-10-28T08:21:11.346Z,101470.75
2022-10-28T08:23:41.827Z,101470.56
2022-10-28T08:26:10.363Z,101470.47
2022-10-28T08:28:38.694Z,101464.56
2022-10-28T08:31:10.257Z,101457.88
2022-10-28T08:33:40.255Z,101482.22
2022-10-28T08:36:11.318Z,101479.22
2022-10-28T08:38:45.285Z,101480.09
2022-10-28T08:41:29.657Z,101476.72
2022-10-28T08:44:35.886Z,101473.44
2022-10-28T08:47:18.119Z,101470.47
2022-10-28T08:49:51.303Z,101462.91
2022-10-28T08:52:29.605Z,101464.44
2022-10-28T08:55:04.140Z,101461.50
2022-10-28T08:57:45.156Z,101458.63
2022-10-28T09:00:23.299Z,101467.66
2022-10-28T09:03:13.312Z,101447.41
2022-10-28T09:05:44.264Z,101429.78
2022-10-28T09:08:24.470Z,101464.88
2022-10-28T09:11:17.310Z,101468.66
2022-10-28T09:14:09.180Z,101481.41
2022-10-28T09:16:47.055Z,101497.72
2022-10-28T09:19:39.368Z,101492.53
2022-10-28T09:22:25.642Z,101478.84
2022-10-28T09:24:57.507Z,101483.69
2022-10-28T09:27:59.596Z,101480.56
2022-10-28T09:30:45.553Z,101469.28
2022-10-28T09:33:35.712Z,101477.19
2022-10-28T09:36:06.966Z,101478.69
2022-10-28T09:38:38.442Z,101486.41
2022-10-28T09:41:15.629Z,101492.59
2022-10-28T09:43:51.458Z,101473.53
2022-10-28T09:46:20.449Z,101478.34
2022-10-28T09:48:51.442Z,101455.09
2022-10-28T09:51:32.133Z,101487.03
2022-10-28T09:54:01.578Z,101454.19
2022-10-28T09:56:31.585Z,101432.06
2022-10-28T09:59:03.759Z,101461.94
2022-10-28T10:01:35.719Z,101454.34
2022-10-28T10:04:16.462Z,101464.91
2022-10-28T10:06:46.742Z,101478.97
2022-10-28T10:09:21.625Z,101484.84
2022-10-28T10:11:51.550Z,101483.72
2022-10-28T10:14:27.072Z,101455.28
2022-10-28T10:16:58.673Z,101474.47
2022-10-28T10:19:27.172Z,101493.97
2022-10-28T10:21:56.515Z,101495.47
2022-10-28T10:24:30.252Z,101489.78
2022-10-28T10:27:01.938Z,101363.69
2022-10-28T10:29:32.827Z,101483.06
2022-10-28T10:32:19.474Z,101494.72
2022-10-28T10:34:58.035Z,101502.28
2022-10-28T10:37:26.446Z,101497.88
2022-10-28T10:40:22.574Z,101508.34
2022-10-28T10:43:13.049Z,101486.94
2022-10-28T10:45:41.327Z,101486.34
2022-10-28T10:48:15.212Z,101490.03
2022-10-28T10:50:45.628Z,101488.56
2022-10-28T10:53:27.143Z,101412.16
2022-10-28T10:56:00.569Z,101374.53
2022-10-28T10:58:33.264Z,101475.53
2022-10-28T11:01:07.459Z,101509.41
2022-10-28T11:03:39.608Z,101503.28
2022-10-28T11:06:22.985Z,101496.81
2022-10-28T11:08:58.816Z,101498.56
2022-10-28T11:11:35.336Z,101502.41
2022-10-28T11:14:08.362Z,101508.75
2022-10-28T11:16:49.258Z,101504.22
2022-10-28T11:19:25.519Z,101526.28
2022-10-28T11:22:14.017Z,101522.63
2022-10-28T11:25:24.101Z,101525.81
2022-10-28T11:28:09.943Z,101522.53
2022-10-28T11:30:54.784Z,101522.13
2022-10-28T11:33:34.805Z,101516.38
2022-10-28T11:36:19.972Z,101514.47
2022-10-28T11:39:14.124Z,101516.00
2022-10-28T11:41:58.371Z,101520.25
2022-10-28T11:44:42.888Z,101542.81
2022-10-28T11:47:31.654Z,101526.53
2022-10-28T11:50:36.611Z,101523.56
2022-10-28T11:53:54.127Z,101531.44
2022-10-28T11:56:35.806Z,101532.41
2022-10-28T11:59:31.366Z,101536.44
2022-10-28T12:02:14.509Z,101536.41
2022-10-28T12:04:59.799Z,101537.88
2022-10-28T12:08:12.692Z,101531.31
2022-10-28T12:10:55.686Z,101536.66
2022-10-28T12:13:34.835Z,101536.25
2022-10-28T12:16:13.905Z,101527.19
2022-10-28T12:18:52.528Z,101554.34
2022-10-28T12:21:29.657Z,101554.44
2022-10-28T12:24:00.936Z,101557.78
2022-10-28T12:26:39.786Z,101556.16
2022-10-28T12:29:17.463Z,101549.94
2022-10-28T12:31:50.304Z,101521.41
2022-10-28T12:34:27.179Z,101568.88
2022-10-28T12:37:01.658Z,101567.59
2022-10-28T12:39:36.026Z,101568.19
2022-10-28T12:42:12.477Z,101583.66
2022-10-28T12:44:41.807Z,101585.06
2022-10-28T12:47:21.239Z,101574.69
2022-10-28T12:50:01.340Z,101583.72
2022-10-28T12:52:41.183Z,101584.72
2022-10-28T12:55:25.476Z,101585.81
2022-10-28T12:58:02.512Z,101575.09
2022-10-28T13:00:36.752Z,101582.09
2022-10-28T13:03:08.405Z,101579.56
2022-10-28T13:05:43.382Z,101588.84
2022-10-28T13:08:42.814Z,101584.81
2022-10-28T13:11:56.921Z,101585.97
2022-10-28T13:14:47.714Z,101581.31
2022-10-28T13:17:28.582Z,101604.41
2022-10-28T13:20:04.755Z,101615.03
2022-10-28T13:23:05.266Z,101620.53
2022-10-28T13:25:58.905Z,101626.66
2022-10-28T13:28:34.444Z,101600.94
2022-10-28T13:31:06.314Z,101624.22
2022-10-28T13:33:38.534Z,101622.78
2022-10-28T13:36:17.902Z,101620.16
2022-10-28T13:38:54.302Z,101610.31
2022-10-28T13:41:42.242Z,101614.44
2022-10-28T13:44:29.052Z,101611.81
2022-10-28T13:47:27.132Z,101597.91
2022-10-28T13:50:35.098Z,101554.13
2022-10-28T13:53:53.202Z,101625.31
2022-10-28T13:56:47.872Z,101617.31
2022-10-28T13:59:31.705Z,101620.44
2022-10-28T14:02:35.645Z,101618.72
2022-10-28T14:05:08.263Z,101617.81
2022-10-28T14:07:38.369Z,101616.53
2022-10-28T14:10:24.282Z,101625.19
2022-10-28T14:12:56.649Z,101626.16
2022-10-28T14:15:30.477Z,101636.00
2022-10-28T14:18:22.717Z,101629.72
2022-10-28T14:21:01.524Z,101633.63
2022-10-28T14:24:08.782Z,101641.84
2022-10-28T14:27:32.782Z,101635.94
2022-10-28T14:30:22.988Z,101613.03
2022-10-28T14:33:21.541Z,101627.19
2022-10-28T14:36:00.977Z,101639.22
2022-10-28T14:39:13.020Z,101639.88
2022-10-28T14:42:01.503Z,101644.19
2022-10-28T14:44:51.517Z,101657.50
2022-10-28T14:47:41.043Z,101648.00
2022-10-28T14:50:20.848Z,101667.81
2022-10-28T14:52:51.299Z,101652.88
2022-10-28T14:55:26.625Z,101675.34
2022-10-28T14:57:55.383Z,101673.19
2022-10-28T15:00:28.940Z,101682.25
2022-10-28T15:02:57.317Z,101677.78
2022-10-28T15:05:32.306Z,101685.34
2022-10-28T15:08:04.680Z,101695.25
2022-10-28T15:10:35.131Z,101684.78
2022-10-28T15:13:04.638Z,101676.09
2022-10-28T15:15:35.805Z,101666.72
2022-10-28T15:18:22.138Z,101677.41
2022-10-28T15:21:08.779Z,101692.94
2022-10-28T15:23:37.057Z,101684.19
2022-10-28T15:26:09.504Z,101703.19
2022-10-28T15:28:38.312Z,101696.34
2022-10-28T15:31:07.155Z,101701.88
2022-10-28T15:33:40.580Z,101692.88
2022-10-28T15:36:18.289Z,101703.31
2022-10-28T15:38:47.908Z,101691.38
2022-10-28T15:41:49.321Z,101700.16
2022-10-28T15:44:35.718Z,101696.50
2022-10-28T15:47:21.171Z,101703.78
2022-10-28T15:50:05.003Z,101692.47
2022-10-28T15:52:41.439Z,101716.19
2022-10-28T15:56:02.279Z,101716.56
2022-10-28T15:58:37.185Z,101729.31
2022-10-28T16:01:11.554Z,101730.59
2022-10-28T16:03:46.095Z,101719.00
2022-10-28T16:06:25.051Z,101744.34
2022-10-28T16:09:07.907Z,101739.03
2022-10-28T16:11:39.373Z,101731.00
2022-10-28T16:14:32.435Z,101742.50
2022-10-28T16:17:13.693Z,101754.03
2022-10-28T16:19:47.638Z,101753.31
2022-10-28T16:22:18.416Z,101758.81
2022-10-28T16:24:48.183Z,101757.78
2022-10-28T16:27:22.204Z,101752.53
2022-10-28T16:29:51.073Z,101752.13
2022-10-28T16:32:29.529Z,101762.88
2022-10-28T16:34:59.673Z,101767.38
2022-10-28T16:37:30.873Z,101779.84
2022-10-28T16:40:00.532Z,101772.69
2022-10-28T16:42:29.124Z,101774.88
2022-10-28T16:44:57.387Z,101778.59
2022-10-28T16:47:26.836Z,101785.69
2022-10-28T16:49:57.339Z,101784.16
2022-10-28T16:52:29.396Z,101783.47
2022-10-28T16:55:00.223Z,101790.59
2022-10-28T16:57:28.920Z,101788.09
2022-10-28T16:59:57.246Z,101794.28
2022-10-28T17:02:29.255Z,101792.66
2022-10-28T17:04:58.166Z,101793.44
2022-10-28T17:07:27.202Z,101802.28
2022-10-28T17:09:57.004Z,101799.84
2022-10-28T17:12:28.574Z,101796.16
2022-10-28T17:14:56.940Z,101802.56
2022-10-28T17:17:25.161Z,101813.31
2022-10-28T17:19:53.418Z,101825.03
2022-10-28T17:22:21.791Z,101814.47
2022-10-28T17:24:50.253Z,101839.34
2022-10-28T17:27:19.211Z,101834.97
2022-10-28T17:29:49.070Z,101844.03
2022-10-28T17:32:17.719Z,101851.25
2022-10-28T17:34:46.131Z,101843.19
2022-10-28T17:37:14.575Z,101851.25
2022-10-28T17:39:43.236Z,101849.34
2022-10-28T17:42:11.556Z,101858.47
2022-10-28T17:44:39.939Z,101857.47
2022-10-28T17:47:09.583Z,101865.31
2022-10-28T17:49:37.852Z,101860.97
2022-10-28T17:52:06.348Z,101867.25
2022-10-28T17:54:34.634Z,101864.56
2022-10-28T17:57:02.854Z,101863.72
2022-10-28T17:59:31.314Z,101878.06
2022-10-28T18:01:59.719Z,101889.91
2022-10-28T18:04:30.407Z,101884.63
2022-10-28T18:06:59.132Z,101891.91
2022-10-28T18:09:31.641Z,101893.63
2022-10-28T18:12:01.042Z,101893.69
2022-10-28T18:14:29.354Z,101883.19
2022-10-28T18:16:58.058Z,101884.84
2022-10-28T18:19:26.533Z,101877.03
2022-10-28T18:21:56.194Z,101865.19
2022-10-28T18:24:26.106Z,101860.81
2022-10-28T18:26:57.080Z,101874.34
2022-10-28T18:29:25.613Z,101889.81
2022-10-28T18:31:53.906Z,101882.19
2022-10-28T18:34:23.844Z,101888.72
2022-10-28T18:36:52.792Z,101879.16
2022-10-28T18:39:22.361Z,101895.91
2022-10-28T18:41:51.560Z,101902.09
2022-10-28T18:44:24.127Z,101902.03
2022-10-28T18:46:52.491Z,101881.00
2022-10-28T18:49:20.754Z,101901.94
2022-10-28T18:51:49.054Z,101907.16
2022-10-28T18:54:17.511Z,101904.53
2022-10-28T18:56:48.257Z,101890.22
2022-10-28T18:59:17.434Z,101898.31
2022-10-28T19:01:47.001Z,101907.31
2022-10-28T19:04:15.871Z,101903.81
2022-10-28T19:06:44.454Z,101904.66
2022-10-28T19:09:12.686Z,101919.88
2022-10-28T19:11:40.912Z,101918.16
2022-10-28T19:14:11.328Z,101916.41
2022-10-28T19:16:39.580Z,101908.53
2022-10-28T19:19:08.505Z,101913.03
2022-10-28T19:21:36.791Z,101881.25
2022-10-28T19:24:05.508Z,101921.16
2022-10-28T19:26:34.873Z,101923.94
2022-10-28T19:29:05.074Z,101901.88
2022-10-28T19:31:38.718Z,101915.84
2022-10-28T19:34:07.037Z,101908.13
2022-10-28T19:36:35.472Z,101909.09
2022-10-28T19:39:04.636Z,101928.69
2022-10-28T19:41:32.957Z,101924.25
2022-10-28T19:44:02.974Z,101896.13
2022-10-28T19:46:35.208Z,101924.47
2022-10-28T19:49:06.778Z,101914.84
2022-10-28T19:51:37.696Z,101922.19
2022-10-28T19:54:10.322Z,101942.50
2022-10-28T19:56:40.224Z,101945.31
2022-10-28T19:59:08.978Z,101945.34
2022-10-28T20:01:40.318Z,101946.19
2022-10-28T20:04:10.123Z,101936.53
2022-10-28T20:06:40.981Z,101936.75
2022-10-28T20:09:09.823Z,101955.44
2022-10-28T20:11:39.660Z,101933.38
2022-10-28T20:14:11.797Z,101966.16
2022-10-28T20:16:43.656Z,101960.13
2022-10-28T20:19:12.237Z,101965.69
2022-10-28T20:21:40.635Z,101854.25
2022-10-28T20:24:09.572Z,101925.00
2022-10-28T20:26:39.614Z,101958.50
2022-10-28T20:29:09.727Z,101967.34
2022-10-28T20:31:38.981Z,101966.66
2022-10-28T20:34:09.641Z,101943.81
2022-10-28T20:36:39.614Z,101968.56
2022-10-28T20:39:10.765Z,101952.81
2022-10-28T20:41:40.591Z,101990.13
2022-10-28T20:44:09.598Z,101961.88
2022-10-28T20:46:37.964Z,101977.69
2022-10-28T20:49:14.590Z,101978.63
2022-10-28T20:51:43.634Z,101909.53
2022-10-28T20:54:11.867Z,101979.31
2022-10-28T20:56:42.191Z,101985.50
2022-10-28T20:59:10.664Z,101947.63
2022-10-28T21:01:41.698Z,101975.06
2022-10-28T21:04:13.138Z,101976.03
2022-10-28T21:06:41.416Z,101996.50
2022-10-28T21:09:11.679Z,101999.22
2022-10-28T21:11:40.113Z,101993.94
2022-10-28T21:14:08.640Z,101996.69
2022-10-28T21:16:37.107Z,101993.09
2022-10-28T21:19:05.548Z,101953.28
2022-10-28T21:21:35.208Z,101984.22
2022-10-28T21:24:03.750Z,102002.03
2022-10-28T21:26:32.023Z,101959.44
2022-10-28T21:29:00.309Z,101986.78
2022-10-28T21:31:28.531Z,101985.06
2022-10-28T21:33:56.908Z,101978.94
2022-10-28T21:36:25.204Z,101983.44
2022-10-28T21:38:57.959Z,101964.00
2022-10-28T21:41:26.399Z,101994.16
2022-10-28T21:43:55.533Z,101995.13
2022-10-28T21:46:25.387Z,102005.00
2022-10-28T21:48:54.494Z,102005.94
2022-10-28T21:51:22.771Z,102004.19
2022-10-28T21:53:50.992Z,101997.19
2022-10-28T21:56:22.900Z,101997.97
2022-10-28T21:58:52.355Z,101982.22
2022-10-28T22:01:23.472Z,102002.69
2022-10-28T22:03:52.847Z,102009.13
2022-10-28T22:06:21.301Z,102021.44
2022-10-28T22:08:49.709Z,102007.31
2022-10-28T22:11:21.569Z,102005.56
2022-10-28T22:13:57.307Z,102017.06
2022-10-28T22:16:26.759Z,102005.59
2022-10-28T22:18:55.275Z,102021.53
2022-10-28T22:21:25.425Z,102023.38
2022-10-28T22:23:54.463Z,102022.50
2022-10-28T22:26:26.657Z,102024.16
2022-10-28T22:28:55.357Z,102012.53
2022-10-28T22:31:26.065Z,102012.50
2022-10-28T22:33:54.606Z,102003.50
2022-10-28T22:36:24.958Z,102000.84
2022-10-28T22:38:53.940Z,101982.34
2022-10-28T22:41:25.726Z,102015.97
2022-10-28T22:43:55.978Z,102009.72
2022-10-28T22:46:27.045Z,102011.56
2022-10-28T22:48:56.006Z,101979.78
2022-10-28T22:51:24.687Z,102015.44
2022-10-28T22:53:53.111Z,101991.78
2022-10-28T22:56:25.405Z,101990.94
2022-10-28T22:58:56.245Z,101996.19
2022-10-28T23:01:26.118Z,101992.66
2022-10-28T23:03:55.413Z,102007.63
2022-10-28T23:06:26.075Z,102004.94
2022-10-28T23:08:54.331Z,101998.75
2022-10-28T23:11:24.584Z,101999.59
2022-10-28T23:13:54.243Z,102007.63
2022-10-28T23:16:24.969Z,102015.69
2022-10-28T23:18:53.890Z,102012.28
2022-10-28T23:21:24.527Z,102018.66
2022-10-28T23:23:56.366Z,102030.31
2022-10-28T23:26:26.883Z,102021.38
2022-10-28T23:28:57.136Z,101892.34
2022-10-28T23:31:25.953Z,102004.59
2022-10-28T23:33:55.209Z,102024.16
2022-10-28T23:36:24.127Z,102021.50
2022-10-28T23:38:53.885Z,102022.44
2022-10-28T23:41:22.254Z,102017.97
2022-10-28T23:43:51.816Z,102019.88
2022-10-28T23:46:21.117Z,102009.19
2022-10-28T23:48:49.406Z,102021.47
2022-10-28T23:51:19.229Z,102027.63
2022-10-28T23:53:47.580Z,101943.56
2022-10-28T23:56:15.847Z,102016.22
2022-10-28T23:58:44.112Z,101998.03
